Time;durP1;ratioP1;P1;durP2;ratioP2;P2;SDS_P1;SDS_P2;PMS_P1;PMS_P2;Temp;Humidity;BMP_temperature;BMP_pressure;BME280_temperature;BME280_humidity;BME280_pressure;Samples;Min_cycle;Max_cycle;Signal;HPM_P1;HPM_P2
2022/11/14 04:02:23;;;;;;;2.60;2.00;;;14.50;53.20;;;;;;5077515;23;47219;-62
2022/11/14 04:04:48;;;;;;;2.33;2.10;;;14.50;53.30;;;;;;4968899;28;45389;-61
2022/11/14 04:07:14;;;;;;;2.47;2.28;;;14.50;53.30;;;;;;4967359;28;45574;-63
2022/11/14 04:09:39;;;;;;;2.85;2.13;;;14.50;53.30;;;;;;4951419;28;45478;-63
2022/11/14 04:12:05;;;;;;;3.33;2.40;;;14.60;53.30;;;;;;4951331;28;45410;-63
2022/11/14 04:14:31;;;;;;;2.40;2.00;;;14.50;53.30;;;;;;4950078;28;45461;-62
2022/11/14 04:16:56;;;;;;;2.55;2.22;;;14.50;53.30;;;;;;4939003;28;44928;-62
2022/11/14 04:19:22;;;;;;;2.25;1.90;;;14.50;53.30;;;;;;4932137;28;45172;-62
2022/11/14 04:21:48;;;;;;;2.42;2.10;;;14.50;53.30;;;;;;4936349;28;44767;-62
2022/11/14 04:24:13;;;;;;;2.30;2.00;;;14.50;53.40;;;;;;4946623;28;45890;-63
2022/11/14 04:26:39;;;;;;;3.53;2.78;;;14.50;53.30;;;;;;4948069;28;45013;-61
2022/11/14 04:29:04;;;;;;;2.85;2.10;;;14.50;53.30;;;;;;4943793;28;46679;-61
2022/11/14 04:31:30;;;;;;;2.95;2.20;;;14.50;53.20;;;;;;4949388;28;44769;-63
2022/11/14 04:33:55;;;;;;;2.75;2.25;;;14.50;53.30;;;;;;4934448;28;46787;-62
2022/11/14 04:36:21;;;;;;;2.38;2.10;;;14.50;53.30;;;;;;4934980;28;45258;-60
2022/11/14 04:38:47;;;;;;;2.13;1.92;;;14.50;53.30;;;;;;4914648;28;45722;-60
2022/11/14 04:41:12;;;;;;;2.60;2.08;;;14.50;53.30;;;;;;4915348;28;45502;-61
2022/11/14 04:43:38;;;;;;;2.58;2.25;;;14.50;53.30;;;;;;4947758;28;45547;-64
2022/11/14 04:46:04;;;;;;;2.20;2.00;;;14.50;53.30;;;;;;4929853;28;46713;-60
2022/11/14 04:48:29;;;;;;;2.20;1.98;;;14.50;53.30;;;;;;4946450;28;44981;-60
2022/11/14 04:50:55;;;;;;;2.20;1.90;;;14.50;53.30;;;;;;4948738;28;45569;-58
2022/11/14 04:53:20;;;;;;;2.65;2.40;;;14.50;53.30;;;;;;4950687;28;45403;-59
2022/11/14 04:55:46;;;;;;;2.85;2.30;;;14.50;53.20;;;;;;4933558;28;44988;-61
2022/11/14 04:58:11;;;;;;;2.10;1.70;;;14.50;53.20;;;;;;4948274;28;46556;-61
2022/11/14 05:00:37;;;;;;;2.25;2.00;;;14.50;53.30;;;;;;4948857;28;45012;-62
2022/11/14 05:03:03;;;;;;;2.50;2.17;;;14.50;53.30;;;;;;4915997;28;45039;-62
2022/11/14 05:05:28;;;;;;;3.15;2.13;;;14.50;53.30;;;;;;4933749;28;45000;-63
2022/11/14 05:07:54;;;;;;;3.33;2.25;;;14.50;53.30;;;;;;4938186;28;47274;-61
2022/11/14 05:10:20;;;;;;;2.75;2.17;;;14.50;53.20;;;;;;4949092;28;45032;-61
2022/11/14 05:12:45;;;;;;;2.53;2.10;;;14.50;53.20;;;;;;4946531;28;45483;-61
2022/11/14 05:15:11;;;;;;;2.08;1.75;;;14.50;53.30;;;;;;4950004;28;45562;-62
2022/11/14 05:17:36;;;;;;;2.10;1.83;;;14.50;53.90;;;;;;4950547;28;46763;-61
2022/11/14 05:20:02;;;;;;;2.65;2.08;;;14.50;53.30;;;;;;4953273;28;44984;-62
2022/11/14 05:22:28;;;;;;;2.40;2.10;;;14.50;53.30;;;;;;4912661;28;44757;-60
2022/11/14 05:24:53;;;;;;;2.20;2.00;;;14.50;53.30;;;;;;4948133;28;45501;-61
2022/11/14 05:27:19;;;;;;;2.55;2.05;;;14.50;53.20;;;;;;4932025;28;45040;-61
2022/11/14 05:29:44;;;;;;;2.25;2.03;;;14.50;53.30;;;;;;4952013;28;45477;-61
2022/11/14 05:32:10;;;;;;;2.58;1.95;;;14.50;53.30;;;;;;4929308;28;45446;-58
2022/11/14 05:34:35;;;;;;;3.15;2.25;;;14.50;53.30;;;;;;4946440;28;45445;-61
2022/11/14 05:37:02;;;;;;;2.58;2.17;;;14.40;53.20;;;;;;4919264;28;45371;-62
2022/11/14 05:39:29;;;;;;;2.45;2.03;;;14.50;53.30;;;;;;4933408;28;46336;-61
2022/11/14 05:41:54;;;;;;;2.38;2.10;;;14.50;53.30;;;;;;4913070;28;45530;-60
2022/11/14 05:44:20;;;;;;;2.25;2.00;;;14.40;53.20;;;;;;4945222;28;44706;-59
2022/11/14 05:46:45;;;;;;;2.33;2.05;;;14.40;53.20;;;;;;4952801;28;45349;-59
2022/11/14 05:49:11;;;;;;;2.83;2.30;;;14.50;53.30;;;;;;4934457;28;45225;-59
2022/11/14 05:51:37;;;;;;;2.40;2.10;;;14.40;53.20;;;;;;4919123;28;45538;-60
2022/11/14 05:54:02;;;;;;;2.72;2.33;;;14.50;53.30;;;;;;4940248;28;45438;-59
2022/11/14 05:56:28;;;;;;;3.63;2.67;;;14.50;53.30;;;;;;4952941;28;46333;-63
2022/11/14 05:58:54;;;;;;;2.65;2.08;;;14.50;53.30;;;;;;4951130;28;45601;-62
2022/11/14 06:01:19;;;;;;;2.47;2.10;;;14.50;53.30;;;;;;4957108;28;44864;-61
2022/11/14 06:03:46;;;;;;;3.75;2.50;;;14.50;53.30;;;;;;4939016;28;45568;-61
2022/11/14 06:06:14;;;;;;;2.80;1.85;;;14.40;53.20;;;;;;4953575;28;46541;-61
2022/11/14 06:08:40;;;;;;;2.50;2.22;;;14.40;53.30;;;;;;4943550;28;45153;-61
2022/11/14 06:11:07;;;;;;;3.05;2.38;;;14.40;53.30;;;;;;4919978;28;45651;-62
2022/11/14 06:13:33;;;;;;;2.65;2.15;;;14.40;53.20;;;;;;4936036;28;44754;-61
2022/11/14 06:16:06;;;;;;;2.70;2.20;;;14.40;53.20;;;;;;4952499;28;46704;-61
2022/11/14 06:18:32;;;;;;;2.90;2.20;;;14.40;53.20;;;;;;4957783;28;45010;-59
2022/11/14 06:21:25;;;;;;;2.80;2.10;;;14.40;53.20;;;;;;4926074;28;45151;-61
2022/11/14 06:23:51;;;;;;;2.63;2.17;;;14.40;53.20;;;;;;4953539;28;45084;-62
2022/11/14 06:26:29;;;;;;;2.53;2.30;;;14.40;53.30;;;;;;4941243;28;45369;-60
2022/11/14 06:28:55;;;;;;;2.20;1.80;;;14.40;53.30;;;;;;4923496;28;45600;-60
2022/11/14 06:31:20;;;;;;;2.70;2.00;;;14.40;53.30;;;;;;4928385;28;45152;-62
2022/11/14 06:33:46;;;;;;;2.85;2.30;;;14.40;53.20;;;;;;4935838;28;45326;-63
2022/11/14 06:36:12;;;;;;;2.70;2.03;;;14.40;53.20;;;;;;4947062;28;45571;-61
2022/11/14 06:38:38;;;;;;;2.58;2.22;;;14.40;53.20;;;;;;4922536;28;45533;-62
2022/11/14 06:41:12;;;;;;;2.47;2.28;;;14.40;53.30;;;;;;4938814;28;45056;-61
2022/11/14 06:43:39;;;;;;;2.92;2.28;;;14.40;53.30;;;;;;4950177;28;45336;-62
2022/11/14 06:46:05;;;;;;;2.10;1.85;;;14.40;53.30;;;;;;4927889;28;45256;-60
2022/11/14 06:48:31;;;;;;;2.33;2.13;;;14.40;53.30;;;;;;4931187;28;45056;-59
2022/11/14 06:50:57;;;;;;;2.47;2.28;;;14.40;53.20;;;;;;4930690;28;45333;-59
2022/11/14 06:53:23;;;;;;;2.65;2.30;;;14.40;53.20;;;;;;4950122;28;44685;-62
2022/11/14 06:55:56;;;;;;;2.25;1.90;;;14.40;53.40;;;;;;4951133;28;45532;-61
2022/11/14 06:58:27;;;;;;;3.25;2.42;;;14.40;53.30;;;;;;4914773;28;45143;-60
2022/11/14 07:00:52;;;;;;;2.13;1.92;;;14.40;53.30;;;;;;4917579;28;45244;-61
2022/11/14 07:03:18;;;;;;;2.17;1.83;;;14.40;53.30;;;;;;4895998;28;45426;-60
2022/11/14 07:05:44;;;;;;;3.35;2.20;;;14.40;53.30;;;;;;4918511;28;46143;-62
2022/11/14 07:08:10;;;;;;;2.47;2.15;;;14.40;53.30;;;;;;4918052;28;45176;-60
2022/11/14 07:10:36;;;;;;;2.63;2.20;;;14.50;53.20;;;;;;4884577;28;44994;-60
2022/11/14 07:13:01;;;;;;;5.65;2.55;;;14.50;53.20;;;;;;4927479;28;45547;-61
2022/11/14 07:15:27;;;;;;;3.15;2.10;;;14.60;53.20;;;;;;4916721;28;46804;-60
2022/11/14 07:17:53;;;;;;;2.60;2.28;;;14.70;53.00;;;;;;4924011;28;45492;-56
2022/11/14 07:20:18;;;;;;;3.13;2.00;;;14.90;52.80;;;;;;4913014;28;45629;-57
2022/11/14 07:22:47;;;;;;;4.22;2.10;;;15.10;52.50;;;;;;4931456;28;45302;-61
2022/11/14 07:25:13;;;;;;;2.28;2.08;;;15.30;52.30;;;;;;4929400;28;45337;-55
2022/11/14 07:27:38;;;;;;;5.13;2.30;;;15.50;52.00;;;;;;4928192;28;45090;-62
2022/11/14 07:30:05;;;;;;;7.20;2.58;;;15.60;51.80;;;;;;4931439;28;45102;-59
2022/11/14 07:32:30;;;;;;;7.32;2.38;;;15.80;51.60;;;;;;4934403;28;45163;-60
2022/11/14 07:34:56;;;;;;;2.58;2.10;;;16.00;51.40;;;;;;4903517;28;46145;-61
2022/11/14 07:37:21;;;;;;;5.18;2.08;;;16.10;51.30;;;;;;4931091;28;45171;-61
2022/11/14 07:39:47;;;;;;;5.18;2.03;;;16.20;51.10;;;;;;4903398;28;45433;-62
2022/11/14 07:42:12;;;;;;;2.67;1.80;;;16.30;51.10;;;;;;4934363;28;45395;-60
2022/11/14 07:44:38;;;;;;;2.45;2.00;;;16.40;51.00;;;;;;4930133;28;46856;-61
2022/11/14 07:47:06;;;;;;;2.20;1.83;;;16.40;50.90;;;;;;4933977;28;45550;-61
2022/11/14 07:49:33;;;;;;;3.70;1.65;;;16.40;50.90;;;;;;4927958;28;44933;-60
2022/11/14 07:51:58;;;;;;;4.93;1.92;;;16.50;51.00;;;;;;4930079;28;44787;-61
2022/11/14 07:54:24;;;;;;;5.10;1.80;;;16.60;51.00;;;;;;4914248;28;45493;-62
2022/11/14 07:56:50;;;;;;;2.47;2.03;;;16.70;50.70;;;;;;4917773;28;45464;-60
2022/11/14 07:59:15;;;;;;;1.67;1.52;;;16.90;50.60;;;;;;4932482;28;45364;-62
2022/11/14 08:01:41;;;;;;;;;;;17.10;50.40;;;;;;4948382;28;45229;-60
2022/11/14 08:04:06;;;;;;;;;;;17.20;49.70;;;;;;4947941;28;45779;-61
2022/11/14 08:06:32;;;;;;;;;;;17.40;49.60;;;;;;4957129;28;45327;-60
2022/11/14 08:08:57;;;;;;;;;;;17.50;49.40;;;;;;4953706;28;45237;-60
2022/11/14 08:14:07;;;;;;;;;;;17.80;49.00;;;;;;4951478;28;45822;-61
2022/11/14 08:16:32;;;;;;;;;;;18.00;48.80;;;;;;4957602;28;45360;-61
2022/11/14 08:18:58;;;;;;;;;;;18.10;48.80;;;;;;4940407;28;45191;-59
2022/11/14 08:21:25;;;;;;;;;;;18.20;48.60;;;;;;4953210;28;45358;-63
2022/11/14 08:23:50;;;;;;;;;;;18.30;48.50;;;;;;4950073;28;45139;-59
2022/11/14 08:26:15;;;;;;;;;;;18.40;48.50;;;;;;4934528;28;45079;-61
2022/11/14 08:28:41;;;;;;;;;;;18.40;48.30;;;;;;4949228;28;45463;-61
2022/11/14 08:31:09;;;;;;;;;;;18.40;48.50;;;;;;4934613;28;45702;-61
2022/11/14 08:33:34;;;;;;;;;;;18.40;48.60;;;;;;4955171;28;45332;-57
2022/11/14 08:36:02;;;;;;;;;;;18.50;48.50;;;;;;4946976;28;45020;-61
2022/11/14 08:38:29;;;;;;;;;;;18.60;48.30;;;;;;4956915;28;45115;-62
2022/11/14 08:40:58;;;;;;;;;;;18.70;48.80;;;;;;4956716;28;45089;-62
2022/11/14 08:43:23;;;;;;;;;;;18.90;48.00;;;;;;4950212;28;45418;-62
2022/11/14 08:45:49;;;;;;;;;;;19.00;47.80;;;;;;4949765;28;45394;-62
2022/11/14 08:48:14;;;;;;;;;;;19.20;47.70;;;;;;4960813;28;45211;-61
2022/11/14 08:50:40;;;;;;;;;;;19.30;47.50;;;;;;4940057;28;45257;-61
2022/11/14 08:53:05;;;;;;;;;;;19.40;47.40;;;;;;4954735;28;45462;-62
2022/11/14 08:55:31;;;;;;;;;;;19.50;47.20;;;;;;4953539;28;45508;-60
2022/11/14 08:57:57;;;;;;;;;;;19.70;47.20;;;;;;4933206;28;45420;-58
2022/11/14 09:00:22;;;;;;;;;;;19.80;46.90;;;;;;4936985;28;45396;-62
2022/11/14 09:02:48;;;;;;;;;;;19.90;46.90;;;;;;4953906;28;46471;-60
2022/11/14 09:05:13;;;;;;;;;;;20.00;46.70;;;;;;4933323;28;44945;-62
2022/11/14 09:07:39;;;;;;;;;;;20.10;46.60;;;;;;4951835;28;45498;-62
2022/11/14 09:10:04;;;;;;;;;;;20.20;46.50;;;;;;4955653;28;45468;-63
2022/11/14 09:12:30;;;;;;;;;;;20.30;46.40;;;;;;4956852;28;45330;-60
2022/11/14 09:14:55;;;;;;;;;;;20.40;46.50;;;;;;4953101;28;45536;-61
2022/11/14 09:17:21;;;;;;;;;;;20.50;46.40;;;;;;4934775;28;45578;-62
2022/11/14 09:19:47;;;;;;;;;;;20.60;46.30;;;;;;4934099;28;45557;-61
2022/11/14 09:22:12;;;;;;;;;;;20.70;46.30;;;;;;4950891;28;45459;-62
2022/11/14 09:24:38;;;;;;;;;;;20.80;46.20;;;;;;4953352;28;45729;-61
2022/11/14 09:27:03;;;;;;;;;;;20.80;46.10;;;;;;4952533;28;45326;-61
2022/11/14 09:29:29;;;;;;;;;;;21.00;46.00;;;;;;4948325;28;44885;-62
2022/11/14 09:31:55;;;;;;;;;;;21.00;45.90;;;;;;4947814;28;45523;-61
2022/11/14 09:34:21;;;;;;;;;;;21.20;46.00;;;;;;4952044;28;44590;-61
2022/11/14 09:36:46;;;;;;;;;;;21.20;45.70;;;;;;4953410;28;45335;-61
2022/11/14 09:39:12;;;;;;;;;;;21.30;45.70;;;;;;4948144;28;45194;-61
2022/11/14 09:41:45;;;;;;;;;;;21.40;45.60;;;;;;4952442;28;45382;-58
2022/11/14 09:44:10;;;;;;;;;;;21.50;45.60;;;;;;4947751;28;45241;-62
2022/11/14 09:46:36;;;;;;;;;;;21.60;45.50;;;;;;4953090;28;44785;-61
2022/11/14 09:49:02;;;;;;;;;;;21.70;45.40;;;;;;4953487;28;45297;-60
2022/11/14 09:51:29;;;;;;;;;;;21.70;45.30;;;;;;4918266;28;46448;-62
2022/11/14 09:53:56;;;;;;;;;;;21.80;45.20;;;;;;4918919;28;45299;-62
2022/11/14 09:56:23;;;;;;;;;;;21.90;45.20;;;;;;4938704;28;44675;-61
2022/11/14 09:58:49;;;;;;;;;;;22.00;45.10;;;;;;4950436;28;45577;-63
2022/11/14 10:01:16;;;;;;;;;;;22.00;45.00;;;;;;4952639;28;46303;-60
2022/11/14 10:03:46;;;;;;;;;;;22.10;44.90;;;;;;4928045;28;45751;-61
2022/11/14 10:06:25;;;;;;;;;;;22.20;44.90;;;;;;4949895;28;44858;-61
2022/11/14 10:08:57;;;;;;;;;;;22.20;44.80;;;;;;4949834;28;45191;-58
2022/11/14 10:11:32;;;;;;;;;;;22.30;44.70;;;;;;4951873;28;45419;-62
2022/11/14 10:13:58;;;;;;;;;;;22.30;44.70;;;;;;4930306;28;45518;-60
2022/11/14 10:16:41;;;;;;;;;;;22.40;44.70;;;;;;4944848;28;44981;-61
2022/11/14 10:19:06;;;;;;;;;;;22.50;44.60;;;;;;4931504;28;45298;-64
2022/11/14 10:21:34;;;;;;;;;;;22.50;44.60;;;;;;4951775;28;45583;-62
2022/11/14 10:24:03;;;;;;;;;;;22.50;44.50;;;;;;4953523;28;44903;-62
2022/11/14 10:26:29;;;;;;;;;;;22.60;44.60;;;;;;4943139;28;45235;-63
2022/11/14 10:29:13;;;;;;;;;;;22.60;44.50;;;;;;4954267;28;45533;-60
2022/11/14 10:31:42;;;;;;;;;;;22.60;44.40;;;;;;4949151;28;46397;-62
2022/11/14 10:34:12;;;;;;;;;;;22.70;44.50;;;;;;4951065;28;45211;-62
2022/11/14 10:36:45;;;;;;;;;;;22.70;44.40;;;;;;4917784;28;44839;-59
2022/11/14 10:39:18;;;;;;;;;;;22.80;44.40;;;;;;4945121;28;45727;-60
2022/11/14 10:41:44;;;;;;;;;;;22.80;44.20;;;;;;4956125;28;45493;-61
2022/11/14 10:44:11;;;;;;;;;;;22.80;44.10;;;;;;4952109;28;44640;-60
2022/11/14 10:46:38;;;;;;;1.75;1.08;;;22.80;44.10;;;;;;4931434;28;45481;-60
2022/11/14 10:49:20;;;;;;;5.97;1.50;;;22.90;45.20;;;;;;4949263;28;45451;-61
2022/11/14 10:51:53;;;;;;;1.77;1.15;;;23.00;44.50;;;;;;4941511;28;45563;-60
2022/11/14 10:54:35;;;;;;;1.92;1.10;;;22.90;45.70;;;;;;4934855;28;44847;-61
2022/11/14 10:57:01;;;;;;;1.42;1.33;;;23.00;44.90;;;;;;4914610;28;45499;-61
2022/11/14 10:59:27;;;;;;;1.52;1.30;;;23.00;45.10;;;;;;4949365;28;45513;-61
2022/11/14 11:01:55;;;;;;;2.30;1.45;;;23.00;45.10;;;;;;4939228;28;45483;-58
2022/11/14 11:04:27;;;;;;;1.35;1.23;;;23.00;45.00;;;;;;4949785;28;44946;-61
2022/11/14 11:07:06;;;;;;;1.30;1.10;;;23.00;45.00;;;;;;4943899;28;45502;-61
2022/11/14 11:12:21;;;;;;;1.98;1.30;;;23.00;44.90;;;;;;4940263;28;45944;-61
2022/11/14 11:14:48;;;;;;;1.35;1.20;;;23.10;44.90;;;;;;4920531;28;44900;-62
2022/11/14 11:17:19;;;;;;;1.65;1.33;;;23.00;44.80;;;;;;4933136;28;45574;-60
2022/11/14 11:19:47;;;;;;;1.38;1.23;;;23.10;44.60;;;;;;4955919;28;45000;-56
2022/11/14 11:22:34;;;;;;;1.30;1.20;;;23.10;44.90;;;;;;4942089;28;45686;-59
2022/11/14 11:25:00;;;;;;;1.20;1.10;;;23.10;44.30;;;;;;4937975;28;45097;-62
2022/11/14 11:27:27;;;;;;;1.58;1.20;;;23.10;44.80;;;;;;4945963;28;45088;-62
2022/11/14 11:30:19;;;;;;;2.05;1.40;;;23.10;44.80;;;;;;4899051;28;45206;-63
2022/11/14 11:32:44;;;;;;;1.98;1.40;;;23.20;44.10;;;;;;4951135;28;45307;-62
2022/11/14 11:35:12;;;;;;;1.95;1.25;;;23.30;44.70;;;;;;4944569;28;44920;-61
2022/11/14 11:37:41;;;;;;;1.42;1.20;;;23.30;44.60;;;;;;4919809;28;45495;-60
2022/11/14 11:40:17;;;;;;;1.42;1.10;;;23.40;44.50;;;;;;4949862;28;45252;-62
2022/11/14 11:42:47;;;;;;;2.63;1.35;;;23.50;44.40;;;;;;4918274;28;45725;-62
2022/11/14 11:45:16;;;;;;;1.88;1.27;;;23.50;44.40;;;;;;4941950;28;45288;-57
2022/11/14 11:47:45;;;;;;;1.70;1.30;;;23.50;44.30;;;;;;4956050;28;45496;-59
2022/11/14 11:50:14;;;;;;;3.38;1.40;;;23.50;44.30;;;;;;4917230;28;45639;-60
2022/11/14 11:52:47;;;;;;;1.75;1.30;;;23.60;44.30;;;;;;4914145;28;47155;-61
2022/11/14 11:55:19;;;;;;;2.33;1.02;;;23.60;44.20;;;;;;4949415;28;45246;-60
2022/11/14 11:57:54;;;;;;;1.88;1.10;;;23.60;44.20;;;;;;4918663;28;45418;-61
2022/11/14 12:00:20;;;;;;;1.75;1.30;;;23.60;44.10;;;;;;4892352;28;1062274;-60
2022/11/14 12:02:51;;;;;;;1.20;1.10;;;23.60;44.40;;;;;;4933350;28;47474;-61
2022/11/14 12:06:11;;;;;;;3.33;1.52;;;23.60;44.30;;;;;;4923895;28;45309;-62
2022/11/14 12:09:18;;;;;;;1.27;1.15;;;23.60;43.90;;;;;;4855926;29;45522;-61
2022/11/14 12:11:50;;;;;;;1.15;1.00;;;23.50;43.90;;;;;;4932320;28;45623;-62
2022/11/14 12:14:52;;;;;;;1.55;1.10;;;23.30;44.60;;;;;;4937112;28;45176;-61
2022/11/14 12:17:46;;;;;;;3.28;1.17;;;23.20;44.50;;;;;;4949326;28;45449;-61
2022/11/14 12:20:11;;;;;;;;;;;23.10;44.70;;;;;;4946229;28;44934;-61
2022/11/14 12:23:03;;;;;;;1.88;1.17;;;23.00;44.50;;;;;;4951829;28;45567;-62
2022/11/14 12:25:46;;;;;;;1.30;1.20;;;22.90;44.90;;;;;;4939820;28;46666;-61
2022/11/14 12:28:25;;;;;;;1.80;0.88;;;22.80;45.10;;;;;;4935439;28;45443;-62
2022/11/14 12:30:52;;;;;;;1.10;0.90;;;22.70;45.40;;;;;;4929904;28;45490;-62
2022/11/14 12:33:27;;;;;;;1.40;1.27;;;22.60;45.60;;;;;;4932298;28;45301;-62
2022/11/14 12:35:56;;;;;;;2.13;1.00;;;22.60;45.50;;;;;;4949458;28;46360;-61
2022/11/14 12:38:22;;;;;;;2.05;1.25;;;22.50;45.70;;;;;;4914166;28;45352;-62
2022/11/14 12:40:53;;;;;;;1.60;1.42;;;22.50;45.90;;;;;;4948430;28;45311;-62
2022/11/14 12:43:41;;;;;;;1.55;1.20;;;22.40;45.90;;;;;;4926207;28;45263;-62
2022/11/14 12:46:12;;;;;;;1.55;1.30;;;22.30;45.80;;;;;;4918376;28;47122;-61
2022/11/14 12:48:41;;;;;;;1.52;1.30;;;22.30;46.10;;;;;;4938488;28;45391;-59
2022/11/14 12:51:28;;;;;;;2.15;1.38;;;22.20;46.20;;;;;;4943768;28;45618;-61
2022/11/14 12:53:55;;;;;;;1.35;1.10;;;22.10;46.10;;;;;;4952494;28;45471;-60
2022/11/14 12:56:24;;;;;;;1.65;1.30;;;22.10;46.40;;;;;;4954620;28;45534;-61
2022/11/14 12:59:05;;;;;;;1.83;1.30;;;22.00;46.30;;;;;;4937187;28;45237;-61
2022/11/14 13:01:51;;;;;;;2.83;1.05;;;22.00;46.40;;;;;;4954054;28;45761;-60
2022/11/14 13:04:55;;;;;;;1.40;0.98;;;22.00;46.40;;;;;;4938493;28;45268;-61
2022/11/14 13:07:27;;;;;;;;;;;21.90;46.50;;;;;;4952136;28;45861;-62
2022/11/14 13:10:13;;;;;;;1.50;1.10;;;21.80;46.60;;;;;;4939244;28;46005;-62
2022/11/14 13:21:58;;;;;;;1.63;1.27;;;21.60;47.00;;;;;;4863452;29;45477;-61
2022/11/14 13:24:24;;;;;;;1.20;1.10;;;21.50;47.00;;;;;;4849276;29;45345;-62
2022/11/14 13:26:51;;;;;;;1.92;1.40;;;21.50;47.10;;;;;;4922093;28;45223;-61
2022/11/14 13:29:39;;;;;;;1.40;1.23;;;21.50;47.20;;;;;;4922686;28;45092;-62
2022/11/14 13:32:09;;;;;;;2.80;1.20;;;21.40;47.20;;;;;;4936437;28;45812;-61
2022/11/14 13:34:42;;;;;;;1.60;1.27;;;21.40;47.30;;;;;;4906124;28;45402;-61
2022/11/14 13:37:23;;;;;;;4.07;1.10;;;21.30;47.30;;;;;;4954135;28;46413;-62
2022/11/14 13:40:11;;;;;;;1.00;0.90;;;21.30;47.40;;;;;;4954248;28;45381;-60
2022/11/14 13:42:44;;;;;;;1.50;1.23;;;21.30;47.50;;;;;;4920571;28;45754;-59
2022/11/14 13:45:19;;;;;;;1.48;1.33;;;21.20;47.50;;;;;;4954439;28;45609;-61
2022/11/14 13:48:04;;;;;;;1.67;1.30;;;21.10;47.60;;;;;;4937953;28;45345;-59
2022/11/14 13:50:35;;;;;;;2.00;1.40;;;21.10;47.60;;;;;;4955413;28;47138;-59
2022/11/14 13:53:01;;;;;;;1.80;1.40;;;21.00;47.60;;;;;;4953697;28;45525;-61
2022/11/14 13:55:56;;;;;;;2.30;1.33;;;21.10;47.70;;;;;;4920271;28;45241;-61
2022/11/14 13:58:25;;;;;;;2.58;1.38;;;21.00;47.70;;;;;;4940081;28;45505;-59
2022/11/14 14:01:09;;;;;;;1.65;1.30;;;20.90;47.80;;;;;;4954918;28;45512;-60
2022/11/14 14:03:52;;;;;;;2.50;1.60;;;20.90;47.90;;;;;;4954511;28;45346;-60
2022/11/14 14:06:20;;;;;;;1.38;1.27;;;20.90;48.00;;;;;;4950951;28;45438;-63
2022/11/14 14:09:04;;;;;;;1.15;1.05;;;20.80;48.00;;;;;;4954465;28;46150;-59
2022/11/14 14:11:48;;;;;;;2.58;1.40;;;20.80;48.00;;;;;;4951170;28;46281;-60
2022/11/14 14:14:42;;;;;;;1.80;1.17;;;20.80;48.00;;;;;;4931235;28;45709;-62
2022/11/14 14:17:12;;;;;;;2.50;1.35;;;20.80;48.10;;;;;;4948030;28;45471;-59
2022/11/14 14:20:08;;;;;;;1.42;1.20;;;20.70;48.10;;;;;;4943746;28;45734;-61
2022/11/14 14:22:36;;;;;;;1.45;1.33;;;20.70;48.20;;;;;;4948740;28;46150;-61
2022/11/14 14:25:25;;;;;;;1.38;1.00;;;20.70;48.20;;;;;;4931259;28;45652;-61
2022/11/14 14:28:07;;;;;;;2.05;1.13;;;20.70;48.20;;;;;;4947637;28;45388;-60
2022/11/14 14:30:32;;;;;;;1.42;0.93;;;20.80;48.00;;;;;;4950326;28;44988;-60
2022/11/14 14:33:07;;;;;;;1.30;1.10;;;21.00;47.90;;;;;;4930600;28;45298;-62
2022/11/14 14:35:38;;;;;;;1.23;0.90;;;21.10;47.70;;;;;;4951795;28;45750;-60
2022/11/14 14:38:08;;;;;;;1.60;1.25;;;21.30;47.60;;;;;;4951358;28;45172;-62
2022/11/14 14:40:35;;;;;;;2.35;1.50;;;21.40;47.50;;;;;;4936206;28;45535;-61
2022/11/14 14:43:02;;;;;;;1.27;0.80;;;21.50;47.30;;;;;;4922414;28;45293;-60
2022/11/14 14:45:28;;;;;;;1.30;1.00;;;21.50;47.20;;;;;;4936312;28;45552;-60
2022/11/14 14:48:04;;;;;;;1.00;0.88;;;21.60;47.20;;;;;;4952885;28;44978;-61
2022/11/14 14:50:39;;;;;;;1.45;1.05;;;21.70;47.10;;;;;;4935755;28;44905;-61
2022/11/14 14:53:05;;;;;;;2.60;1.00;;;21.80;47.10;;;;;;4929419;28;46332;-61
2022/11/14 14:55:33;;;;;;;1.17;0.95;;;21.80;47.00;;;;;;4919435;28;45294;-60
2022/11/14 14:58:25;;;;;;;3.25;1.10;;;21.90;46.90;;;;;;4951195;28;45173;-60
2022/11/14 15:00:52;;;;;;;1.48;0.98;;;22.00;46.70;;;;;;4944808;28;45608;-61
2022/11/14 15:03:17;;;;;;;1.27;0.70;;;22.10;46.80;;;;;;4953549;28;46296;-62
2022/11/14 15:05:43;;;;;;;1.58;1.20;;;22.20;46.80;;;;;;4952523;28;45404;-61
2022/11/14 15:08:13;;;;;;;0.82;0.80;;;22.20;46.70;;;;;;4934246;28;45487;-59
2022/11/14 15:10:38;;;;;;;1.63;1.23;;;22.30;46.60;;;;;;4955553;28;45253;-60
2022/11/14 15:13:04;;;;;;;1.13;1.02;;;22.30;46.60;;;;;;4940437;28;46305;-58
2022/11/14 15:15:29;;;;;;;1.08;0.80;;;22.50;46.60;;;;;;4952620;28;45686;-57
2022/11/14 15:17:57;;;;;;;1.48;1.00;;;22.50;46.50;;;;;;4923760;28;45669;-58
2022/11/14 15:20:27;;;;;;;0.90;0.85;;;22.60;46.50;;;;;;4922970;28;46026;-60
2022/11/14 15:23:08;;;;;;;1.02;0.93;;;22.60;46.30;;;;;;4958346;28;46249;-58
2022/11/14 15:25:34;;;;;;;2.20;1.40;;;22.70;46.40;;;;;;4954638;28;45295;-59
2022/11/14 15:28:01;;;;;;;0.98;0.95;;;22.90;46.10;;;;;;4954735;28;45607;-61
2022/11/14 15:30:42;;;;;;;1.08;0.98;;;22.80;46.10;;;;;;4954447;28;45410;-59
2022/11/14 15:33:36;;;;;;;1.15;1.02;;;22.90;46.00;;;;;;4940366;28;46423;-60
2022/11/14 15:36:12;;;;;;;1.63;1.25;;;22.90;45.90;;;;;;4957759;28;45293;-61
2022/11/14 15:38:37;;;;;;;;;;;23.00;46.10;;;;;;4954289;28;45692;-58
2022/11/14 15:41:18;;;;;;;1.15;0.90;;;23.00;45.70;;;;;;4957588;28;45642;-61
2022/11/14 15:43:51;;;;;;;1.27;0.98;;;23.10;45.90;;;;;;4955426;28;45213;-62
2022/11/14 15:46:46;;;;;;;1.45;1.23;;;23.10;45.90;;;;;;4923456;28;45882;-61
2022/11/14 15:49:20;;;;;;;2.55;1.15;;;23.10;45.60;;;;;;4952597;28;44766;-60
2022/11/14 15:51:48;;;;;;;1.33;0.93;;;23.20;45.80;;;;;;4923086;28;45810;-58
2022/11/14 15:54:24;;;;;;;0.80;0.80;;;23.20;45.90;;;;;;4939511;28;45897;-59
2022/11/14 15:56:50;;;;;;;1.30;1.00;;;23.20;46.20;;;;;;4956903;28;45346;-60
2022/11/14 15:59:16;;;;;;;1.80;1.00;;;23.30;45.80;;;;;;4939018;28;45340;-60
2022/11/14 16:01:42;;;;;;;3.38;0.88;;;23.30;45.80;;;;;;4944954;28;45371;-61
2022/11/14 16:04:18;;;;;;;;;;;23.30;45.80;;;;;;4932062;28;45405;-61
2022/11/14 16:06:44;;;;;;;2.35;0.90;;;23.30;45.30;;;;;;4935935;28;44972;-59
2022/11/14 16:09:14;;;;;;;;;;;23.30;45.70;;;;;;4933359;28;45289;-61
2022/11/14 16:11:39;;;;;;;2.75;0.80;;;23.40;45.30;;;;;;4954065;28;45673;-60
2022/11/14 16:14:05;;;;;;;1.35;0.90;;;23.40;45.70;;;;;;4956110;28;47148;-61
2022/11/14 16:16:30;;;;;;;;;;;23.40;45.60;;;;;;4919057;28;45993;-60
2022/11/14 16:18:56;;;;;;;;;;;23.40;45.20;;;;;;4956786;28;45666;-60
2022/11/14 16:21:22;;;;;;;;;;;23.40;45.30;;;;;;4934663;28;45241;-61
2022/11/14 16:23:48;;;;;;;;;;;23.50;45.20;;;;;;4955197;28;46142;-59
2022/11/14 16:26:14;;;;;;;;;;;23.50;45.20;;;;;;4936024;28;46529;-61
2022/11/14 16:28:39;;;;;;;;;;;23.50;45.20;;;;;;4956066;28;46302;-60
2022/11/14 16:31:11;;;;;;;;;;;23.50;45.20;;;;;;4937979;28;45937;-60
2022/11/14 16:33:37;;;;;;;;;;;23.50;45.10;;;;;;4931658;28;45434;-62
2022/11/14 16:36:02;;;;;;;;;;;23.50;45.10;;;;;;4951718;28;45359;-60
2022/11/14 16:38:28;;;;;;;;;;;23.60;45.20;;;;;;4952291;28;45596;-62
2022/11/14 16:40:54;;;;;;;;;;;23.60;45.10;;;;;;4956552;28;45282;-62
2022/11/14 16:43:20;;;;;;;;;;;23.60;45.10;;;;;;4957441;28;45300;-62
2022/11/14 16:45:45;;;;;;;;;;;23.60;45.10;;;;;;4938480;28;45379;-60
2022/11/14 16:48:11;;;;;;;;;;;23.60;45.00;;;;;;4954151;28;45407;-60
2022/11/14 16:50:36;;;;;;;;;;;23.70;45.00;;;;;;4956369;28;45169;-60
2022/11/14 16:53:02;;;;;;;;;;;23.70;45.00;;;;;;4956209;28;46309;-61
2022/11/14 16:55:27;;;;;;;;;;;23.70;45.00;;;;;;4955935;28;45769;-60
2022/11/14 16:57:53;;;;;;;;;;;23.70;45.00;;;;;;4955952;28;45249;-63
2022/11/14 17:00:18;;;;;;;;;;;23.70;45.00;;;;;;4937807;28;46640;-60
2022/11/14 17:02:45;;;;;;;;;;;23.70;45.00;;;;;;4956998;28;46231;-61
2022/11/14 17:05:11;;;;;;;;;;;23.70;45.60;;;;;;4953919;28;46164;-60
2022/11/14 17:07:36;;;;;;;;;;;23.70;45.00;;;;;;4955204;28;45953;-63
2022/11/14 17:10:02;;;;;;;;;;;23.80;45.00;;;;;;4955102;28;46086;-61
2022/11/14 17:12:28;;;;;;;;;;;23.80;45.00;;;;;;4956031;28;46732;-63
2022/11/14 17:14:54;;;;;;;;;;;23.80;44.90;;;;;;4955269;28;45054;-61
2022/11/14 17:17:19;;;;;;;;;;;23.80;44.90;;;;;;4953551;28;45623;-62
2022/11/14 17:19:45;;;;;;;;;;;23.80;44.90;;;;;;4953895;28;45704;-62
2022/11/14 17:22:11;;;;;;;;;;;23.90;44.90;;;;;;4953631;28;46068;-62
2022/11/14 17:24:36;;;;;;;;;;;23.90;45.00;;;;;;4951688;28;45691;-62
2022/11/14 17:27:02;;;;;;;;;;;23.90;44.90;;;;;;4953354;28;45576;-62
2022/11/14 17:29:28;;;;;;;;;;;23.80;44.90;;;;;;4953338;28;45347;-61
2022/11/14 17:31:53;;;;;;;;;;;23.70;45.00;;;;;;4937541;28;46190;-62
2022/11/14 17:34:19;;;;;;;;;;;23.60;45.00;;;;;;4955686;28;45211;-62
2022/11/14 17:36:44;;;;;;;;;;;23.50;45.20;;;;;;4954374;28;45247;-62
2022/11/14 17:39:10;;;;;;;;;;;23.40;45.30;;;;;;4956365;28;45408;-61
2022/11/14 17:41:35;;;;;;;;;;;23.30;45.50;;;;;;4956511;28;45498;-59
2022/11/14 17:44:02;;;;;;;;;;;23.20;45.70;;;;;;4947688;28;46169;-61